This is the latest recevied weather packets stored in our database for station/object n3uvr. If no packets are shown the sender has not sent any weather packets the latest 10 day(s).
| Time | Temp. | Humidity | Pressure | Rain* | Wind** | Luminosity | Snow |
|---|---|---|---|---|---|---|---|
| 1788219350 | 20.56° C | 84% | 1017.5 hPa | 1.78 mm | - | 0 W/m² | - |
| 1788218159 | 20.56° C | 84% | 1017.7 hPa | 3.05 mm | - | 5 W/m² | - |
| 1788216369 | 20.56° C | 85% | 1018 hPa | 3.05 mm | - | 0 W/m² | - |
| 1788215754 | 20.56° C | 85% | 1018.1 hPa | 1.52 mm | - | 0 W/m² | - |
| 1788215153 | 20.56° C | 85% | 1018.1 hPa | 0.25 mm | - | 0 W/m² | - |
| 1788214543 | 20.56° C | 85% | 1018.1 hPa | 0.25 mm | - | 0 W/m² | - |
| 1788213343 | 20.56° C | 85% | 1017.9 hPa | 0.25 mm | - | 14 W/m² | - |
| 1788211523 | 20.56° C | 85% | 1018.2 hPa | 0 mm | - | 16 W/m² | - |
| 1788210930 | 20.56° C | 85% | 1018.2 hPa | 0 mm | - | 33 W/m² | - |
| 1788208520 | 20.56° C | 85% | 1018.4 hPa | 0 mm | - | 35 W/m² | - |
| 1788207932 | 20.56° C | 85% | 1018.5 hPa | 0.25 mm | - | 21 W/m² | - |
| 1788207360 | 20.56° C | 85% | 1018.6 hPa | 0.51 mm | - | 44 W/m² | - |
| 1788206766 | 20.56° C | 86% | 1018.8 hPa | 0.76 mm | - | 39 W/m² | - |
| 1788204343 | 20° C | 87% | 1019.5 hPa | 2.29 mm | - | 30 W/m² | - |
| 1788202529 | 20.56° C | 88% | 1019.8 hPa | 1.27 mm | - | 11 W/m² | - |
| 1788201905 | 20.56° C | 88% | 1019.9 hPa | 0.51 mm | - | 14 W/m² | - |
| 1788201278 | 20.56° C | 88% | 1020.1 hPa | 0.25 mm | - | 11 W/m² | - |
| 1788200665 | 20.56° C | 88% | 1020.2 hPa | 0 mm | - | 16 W/m² | - |
| 1788200088 | 20.56° C | 87% | 1020.1 hPa | 0 mm | - | 12 W/m² | - |
| 1788199502 | 20.56° C | 86% | 1020 hPa | 0 mm | - | 11 W/m² | - |
| 1788197705 | 21.67° C | 84% | 1020 hPa | 0 mm | - | 9 W/m² | - |
| 1788196522 | 21.67° C | 83% | 1019.9 hPa | 0 mm | - | 33 W/m² | - |
| 1788195904 | 21.67° C | 82% | 1019.9 hPa | 0 mm | - | 28 W/m² | - |
| 1788195324 | 21.67° C | 82% | 1020 hPa | 0 mm | - | 18 W/m² | - |
| 1788191718 | 21.67° C | 82% | 1019.8 hPa | 0 mm | - | 51 W/m² | - |
* Rain latest hour (hover to see other rain measurements)
** Current wind speed in m/s (hover to see current wind gust speed)